createdAt,value
2018-02-21T00:00:23.744Z,85.28
2018-02-21T00:02:53.248Z,96.82
2018-02-21T00:05:22.825Z,87.12
2018-02-21T00:07:52.292Z,80.18
2018-02-21T00:10:21.762Z,82.75
2018-02-21T00:12:51.285Z,80.22
2018-02-21T00:15:20.842Z,80.15
2018-02-21T00:17:50.348Z,79.25
2018-02-21T00:20:19.820Z,69.00
2018-02-21T00:22:49.346Z,77.07
2018-02-21T00:25:18.810Z,86.95
2018-02-21T00:27:48.313Z,80.53
2018-02-21T00:30:17.780Z,75.50
2018-02-21T00:32:47.296Z,82.60
2018-02-21T00:35:16.772Z,72.85
2018-02-21T00:37:46.292Z,80.35
2018-02-21T00:40:15.760Z,77.87
2018-02-21T00:42:45.273Z,82.00
2018-02-21T00:45:14.752Z,74.00
2018-02-21T00:47:44.258Z,78.53
2018-02-21T00:50:13.732Z,81.93
2018-02-21T00:52:43.328Z,69.90
2018-02-21T00:55:12.893Z,74.55
2018-02-21T00:57:42.443Z,75.35
2018-02-21T01:00:12.261Z,79.87
2018-02-21T01:02:41.766Z,74.07
2018-02-21T01:05:11.332Z,81.28
2018-02-21T01:07:40.852Z,85.25
2018-02-21T01:10:10.607Z,80.38
2018-02-21T01:12:40.180Z,90.22
2018-02-21T01:15:09.931Z,81.45
2018-02-21T01:17:39.493Z,76.78
2018-02-21T01:20:09.254Z,76.45
2018-02-21T01:22:38.810Z,83.07
2018-02-21T01:25:08.532Z,89.68
2018-02-21T01:27:38.089Z,84.55
2018-02-21T01:30:07.906Z,76.18
2018-02-21T01:32:37.462Z,77.22
2018-02-21T01:35:07.331Z,72.47
2018-02-21T01:37:36.850Z,76.07
2018-02-21T01:40:06.606Z,78.35
2018-02-21T01:42:36.114Z,72.18
2018-02-21T01:45:05.983Z,83.43
2018-02-21T01:47:35.505Z,74.32
2018-02-21T01:50:05.268Z,81.22
2018-02-21T01:52:34.813Z,76.87
2018-02-21T01:55:04.339Z,85.68
2018-02-21T01:57:33.864Z,77.30
2018-02-21T02:00:03.648Z,86.60
2018-02-21T02:02:33.355Z,87.65
2018-02-21T02:05:03.079Z,75.87
2018-02-21T02:07:32.631Z,86.00
2018-02-21T02:10:02.148Z,76.43
2018-02-21T02:12:31.708Z,78.62
2018-02-21T02:15:01.233Z,77.80
2018-02-21T02:17:30.732Z,89.45
2018-02-21T02:20:00.204Z,81.75
2018-02-21T02:22:29.685Z,79.87
2018-02-21T02:24:59.190Z,79.93
2018-02-21T02:27:28.672Z,79.95
2018-02-21T02:29:58.172Z,79.97
2018-02-21T02:32:27.681Z,66.45
2018-02-21T02:34:57.158Z,80.53
2018-02-21T02:37:26.670Z,80.32
2018-02-21T02:40:01.185Z,75.32
2018-02-21T02:42:30.683Z,77.25
2018-02-21T02:45:00.158Z,74.93
2018-02-21T02:47:29.667Z,81.03
2018-02-21T02:49:59.151Z,83.53
2018-02-21T02:52:28.659Z,78.22
2018-02-21T02:54:58.122Z,74.95
2018-02-21T02:57:27.649Z,85.00
2018-02-21T02:59:57.205Z,78.57
2018-02-21T03:02:26.716Z,80.95
2018-02-21T03:04:56.174Z,81.80
2018-02-21T03:07:25.696Z,75.78
2018-02-21T03:09:55.167Z,77.05
2018-02-21T03:12:24.682Z,72.47
2018-02-21T03:14:54.135Z,75.03
2018-02-21T03:17:23.649Z,75.75
2018-02-21T03:19:53.164Z,73.45
2018-02-21T03:22:22.634Z,82.35
2018-02-21T03:24:52.303Z,86.22
2018-02-21T03:27:21.791Z,77.03
2018-02-21T03:29:51.286Z,71.70
2018-02-21T03:32:21.675Z,80.40
2018-02-21T03:34:51.195Z,90.80
2018-02-21T03:37:20.850Z,78.18
2018-02-21T03:39:50.366Z,79.90
2018-02-21T03:42:19.877Z,75.22
2018-02-21T03:44:49.579Z,75.40
2018-02-21T03:47:19.067Z,79.40
2018-02-21T03:49:48.577Z,65.87
2018-02-21T03:52:18.074Z,77.72
2018-02-21T03:54:47.577Z,79.78
2018-02-21T03:57:17.097Z,70.75
2018-02-21T03:59:46.570Z,73.82
2018-02-21T04:02:16.074Z,76.07
2018-02-21T04:04:45.561Z,74.30
2018-02-21T04:07:15.081Z,74.30
2018-02-21T04:09:44.593Z,83.43
2018-02-21T04:12:14.090Z,86.63
2018-02-21T04:14:43.599Z,74.57
2018-02-21T04:17:13.133Z,71.68
2018-02-21T04:19:42.642Z,69.85
2018-02-21T04:22:12.115Z,71.68
2018-02-21T04:24:41.611Z,79.00
2018-02-21T04:27:11.138Z,70.80
2018-02-21T04:29:40.650Z,80.00
2018-02-21T04:32:10.115Z,71.25
2018-02-21T04:34:39.653Z,82.55
2018-02-21T04:37:09.111Z,87.10
2018-02-21T04:39:38.621Z,76.93
2018-02-21T04:42:08.175Z,74.85
2018-02-21T04:44:37.666Z,83.00
2018-02-21T04:47:07.198Z,74.43
2018-02-21T04:49:36.679Z,75.62
2018-02-21T04:52:06.188Z,74.47
2018-02-21T04:54:41.490Z,78.57
2018-02-21T04:57:13.838Z,73.97
2018-02-21T04:59:47.217Z,80.45
2018-02-21T05:02:16.721Z,70.87
2018-02-21T05:04:46.210Z,83.12
2018-02-21T05:07:15.751Z,78.10
2018-02-21T05:09:45.281Z,69.97
2018-02-21T05:12:14.748Z,67.12
2018-02-21T05:14:44.247Z,65.10
2018-02-21T05:17:13.730Z,70.82
2018-02-21T05:19:43.260Z,67.65
2018-02-21T05:22:12.730Z,75.82
2018-02-21T05:24:42.251Z,70.90
2018-02-21T05:27:11.840Z,76.97
2018-02-21T05:29:41.360Z,74.07
2018-02-21T05:32:10.862Z,69.07
2018-02-21T05:34:40.371Z,66.82
2018-02-21T05:37:09.872Z,68.80
2018-02-21T05:39:39.368Z,70.70
2018-02-21T05:42:08.878Z,71.97
2018-02-21T05:44:38.350Z,79.12
2018-02-21T05:47:07.841Z,67.20
2018-02-21T05:49:37.325Z,86.25
2018-02-21T05:52:06.865Z,82.82
2018-02-21T05:54:36.324Z,78.62
2018-02-21T05:57:05.860Z,78.05
2018-02-21T05:59:35.342Z,74.15
2018-02-21T06:02:04.872Z,68.12
2018-02-21T06:04:34.352Z,63.58
2018-02-21T06:07:03.860Z,72.12
2018-02-21T06:09:33.389Z,71.82
2018-02-21T06:12:02.882Z,74.57
2018-02-21T06:14:32.375Z,71.72
2018-02-21T06:17:01.885Z,64.15
2018-02-21T06:19:31.413Z,69.45
2018-02-21T06:22:00.904Z,71.45
2018-02-21T06:24:30.432Z,65.30
2018-02-21T06:26:59.921Z,69.00
2018-02-21T06:29:29.381Z,74.37
2018-02-21T06:31:58.909Z,59.92
2018-02-21T06:34:28.424Z,68.00
2018-02-21T06:36:57.896Z,61.17
2018-02-21T06:39:27.407Z,71.65
2018-02-21T06:41:56.976Z,57.92
2018-02-21T06:44:26.449Z,61.42
2018-02-21T06:46:55.927Z,59.85
2018-02-21T06:49:25.423Z,61.95
2018-02-21T06:51:54.943Z,63.20
2018-02-21T06:54:24.424Z,63.78
2018-02-21T06:56:53.944Z,64.53
2018-02-21T06:59:23.427Z,58.80
2018-02-21T07:01:52.996Z,66.53
2018-02-21T07:04:22.465Z,65.05
2018-02-21T07:06:51.988Z,57.78
2018-02-21T07:09:21.479Z,59.17
2018-02-21T07:11:50.979Z,61.50
2018-02-21T07:14:20.485Z,61.28
2018-02-21T07:16:50.016Z,59.00
2018-02-21T07:19:19.552Z,65.30
2018-02-21T07:21:49.037Z,59.40
2018-02-21T07:24:18.503Z,60.70
2018-02-21T07:26:48.049Z,56.22
2018-02-21T07:29:17.559Z,57.40
2018-02-21T07:31:47.068Z,58.85
2018-02-21T07:34:16.533Z,59.22
2018-02-21T07:36:46.058Z,66.05
2018-02-21T07:39:15.540Z,65.53
2018-02-21T07:41:45.041Z,65.10
2018-02-21T07:44:14.567Z,61.72
2018-02-21T07:46:44.055Z,59.75
2018-02-21T07:49:13.596Z,57.38
2018-02-21T07:51:43.038Z,67.68
2018-02-21T07:54:12.558Z,65.18
2018-02-21T07:56:42.088Z,72.00
2018-02-21T07:59:11.593Z,67.20
2018-02-21T08:01:41.079Z,74.80
2018-02-21T08:04:10.594Z,74.05
2018-02-21T08:06:40.117Z,67.32
2018-02-21T08:09:09.616Z,62.65
2018-02-21T08:11:39.113Z,61.63
2018-02-21T08:14:08.597Z,64.60
2018-02-21T08:16:38.082Z,62.58
2018-02-21T08:19:07.769Z,65.43
2018-02-21T08:21:37.283Z,61.97
2018-02-21T08:24:06.772Z,58.97
2018-02-21T08:26:36.238Z,64.53
2018-02-21T08:29:05.740Z,64.55
2018-02-21T08:31:35.383Z,58.22
2018-02-21T08:34:04.893Z,72.50
2018-02-21T08:36:34.416Z,61.00
2018-02-21T08:39:03.906Z,60.40
2018-02-21T08:41:33.417Z,55.28
2018-02-21T08:44:02.978Z,55.80
2018-02-21T08:46:32.496Z,55.10
2018-02-21T08:49:02.023Z,63.20
2018-02-21T08:51:31.554Z,63.20
2018-02-21T08:54:01.044Z,61.60
2018-02-21T08:56:30.559Z,59.00
2018-02-21T08:59:00.072Z,61.45
2018-02-21T09:01:29.550Z,60.58
2018-02-21T09:03:59.194Z,61.75
2018-02-21T09:06:28.684Z,64.93
2018-02-21T09:08:58.207Z,63.38
2018-02-21T09:11:27.729Z,56.80
2018-02-21T09:13:57.207Z,63.90
2018-02-21T09:16:26.704Z,56.13
2018-02-21T09:18:56.268Z,54.25
2018-02-21T09:21:25.800Z,62.13
2018-02-21T09:23:55.314Z,59.35
2018-02-21T09:26:24.782Z,57.03
2018-02-21T09:28:54.262Z,55.70
2018-02-21T09:31:23.741Z,59.47
2018-02-21T09:33:53.272Z,52.97
2018-02-21T09:36:22.762Z,55.33
2018-02-21T09:38:52.325Z,52.15
2018-02-21T09:41:22.653Z,55.50
2018-02-21T09:43:52.157Z,50.20
2018-02-21T09:46:21.644Z,54.35
2018-02-21T09:48:51.124Z,50.12
2018-02-21T09:51:20.631Z,56.88
2018-02-21T09:53:50.131Z,52.97
2018-02-21T09:56:19.576Z,52.13
2018-02-21T09:58:49.066Z,55.88
2018-02-21T10:01:18.555Z,48.10
2018-02-21T10:03:48.054Z,50.33
2018-02-21T10:06:17.547Z,45.97
2018-02-21T10:08:47.029Z,40.83
2018-02-21T10:11:16.543Z,40.50
2018-02-21T10:13:46.115Z,44.67
2018-02-21T10:16:15.643Z,42.55
2018-02-21T10:18:45.135Z,48.50
2018-02-21T10:21:14.641Z,47.83
2018-02-21T10:23:44.099Z,43.15
2018-02-21T10:26:13.753Z,41.30
2018-02-21T10:28:43.219Z,47.10
2018-02-21T10:31:12.718Z,38.20
2018-02-21T10:33:42.212Z,33.45
2018-02-21T10:36:11.734Z,37.75
2018-02-21T10:38:41.222Z,37.63
2018-02-21T10:41:10.756Z,37.22
2018-02-21T10:43:40.264Z,28.60
2018-02-21T10:46:09.747Z,35.35
2018-02-21T10:48:39.392Z,38.42
2018-02-21T10:51:09.417Z,38.97
2018-02-21T10:53:38.879Z,38.33
2018-02-21T10:56:08.382Z,37.03
2018-02-21T10:58:37.844Z,34.72
2018-02-21T11:01:13.024Z,35.85
2018-02-21T11:03:42.520Z,47.25
2018-02-21T11:06:12.003Z,39.70
2018-02-21T11:08:41.530Z,44.30
2018-02-21T11:11:11.014Z,36.40
2018-02-21T11:13:40.509Z,36.17
2018-02-21T11:16:09.981Z,36.45
2018-02-21T11:18:39.468Z,38.42
2018-02-21T11:21:08.977Z,35.20
2018-02-21T11:23:38.531Z,35.28
2018-02-21T11:26:07.957Z,38.63
2018-02-21T11:28:37.477Z,33.70
2018-02-21T11:31:06.935Z,31.80
2018-02-21T11:33:36.432Z,39.95
2018-02-21T11:36:05.905Z,42.08
2018-02-21T11:38:35.414Z,40.63
2018-02-21T11:41:04.916Z,31.23
2018-02-21T11:43:34.529Z,35.47
2018-02-21T11:46:04.033Z,33.35
2018-02-21T11:48:33.545Z,35.95
2018-02-21T11:51:03.071Z,33.92
2018-02-21T11:53:32.559Z,30.62
2018-02-21T11:56:02.081Z,38.85
2018-02-21T11:58:31.571Z,41.80
2018-02-21T12:01:01.082Z,36.05
2018-02-21T12:03:30.602Z,35.38
2018-02-21T12:06:00.095Z,34.00
2018-02-21T12:08:29.563Z,31.73
2018-02-21T12:10:59.059Z,30.33
2018-02-21T12:13:28.530Z,33.10
2018-02-21T12:15:58.032Z,26.05
2018-02-21T12:18:27.651Z,35.83
2018-02-21T12:20:57.153Z,29.83
2018-02-21T12:23:26.626Z,32.40
2018-02-21T12:25:56.140Z,39.47
2018-02-21T12:28:25.634Z,36.17
2018-02-21T12:30:55.172Z,34.00
2018-02-21T12:33:24.679Z,27.83
2018-02-21T12:35:54.203Z,33.08
2018-02-21T12:38:23.697Z,32.47
2018-02-21T12:40:59.090Z,34.08
2018-02-21T12:43:28.569Z,35.42
2018-02-21T12:45:58.230Z,32.72
2018-02-21T12:48:27.759Z,32.08
2018-02-21T12:50:57.230Z,36.38
2018-02-21T12:53:26.729Z,30.10
2018-02-21T12:55:56.252Z,27.87
2018-02-21T12:58:25.768Z,28.95
2018-02-21T13:00:55.284Z,29.30
2018-02-21T13:03:24.806Z,26.83
2018-02-21T13:05:54.338Z,34.65
2018-02-21T13:08:23.838Z,33.30
2018-02-21T13:10:53.309Z,27.08
2018-02-21T13:13:22.818Z,29.15
2018-02-21T13:15:52.286Z,26.75
2018-02-21T13:18:22.025Z,23.60
2018-02-21T13:20:51.493Z,23.33
2018-02-21T13:23:21.005Z,27.55
2018-02-21T13:25:50.581Z,28.75
2018-02-21T13:28:20.043Z,29.00
2018-02-21T13:30:49.555Z,31.20
2018-02-21T13:33:19.042Z,26.73
2018-02-21T13:35:48.596Z,27.87
2018-02-21T13:38:18.051Z,27.17
2018-02-21T13:40:47.578Z,25.08
2018-02-21T13:43:17.169Z,27.90
2018-02-21T13:45:46.667Z,25.92
2018-02-21T13:48:16.153Z,26.80
2018-02-21T13:50:45.673Z,23.60
2018-02-21T13:53:15.143Z,28.58
2018-02-21T13:55:44.653Z,21.67
2018-02-21T13:58:14.182Z,21.00
2018-02-21T14:00:43.711Z,24.70
2018-02-21T14:03:13.207Z,25.27
2018-02-21T14:05:42.744Z,20.37
2018-02-21T14:08:12.309Z,22.23
2018-02-21T14:10:41.844Z,24.20
2018-02-21T14:13:11.333Z,26.45
2018-02-21T14:15:40.859Z,22.60
2018-02-21T14:18:10.393Z,21.35
2018-02-21T14:20:40.071Z,21.62
2018-02-21T14:23:09.583Z,20.50
2018-02-21T14:25:39.107Z,18.62
2018-02-21T14:28:08.625Z,20.15
2018-02-21T14:30:38.174Z,20.65
2018-02-21T14:41:46.868Z,19.77
2018-02-21T14:44:16.258Z,21.20
2018-02-21T14:46:45.708Z,20.58
2018-02-21T14:49:15.092Z,25.17
2018-02-21T14:51:44.535Z,25.30
2018-02-21T14:54:13.911Z,25.35
2018-02-21T14:56:43.362Z,21.98
2018-02-21T14:59:12.881Z,20.05
2018-02-21T15:01:42.322Z,22.85
2018-02-21T15:04:11.756Z,24.17
2018-02-21T15:06:41.178Z,21.30
2018-02-21T15:09:10.570Z,25.00
2018-02-21T15:11:39.990Z,25.52
2018-02-21T15:14:09.419Z,28.08
2018-02-21T15:16:38.847Z,33.15
2018-02-21T15:19:08.248Z,27.92
2018-02-21T15:21:37.635Z,20.98
2018-02-21T15:24:07.063Z,22.55
2018-02-21T15:26:37.186Z,24.00
2018-02-21T15:29:06.605Z,27.00
2018-02-21T15:31:36.049Z,21.42
2018-02-21T15:34:05.452Z,20.70
2018-02-21T15:36:36.870Z,26.33
2018-02-21T15:50:38.446Z,23.02
2018-02-21T15:53:07.857Z,27.37
2018-02-21T15:55:37.706Z,24.35
2018-02-21T15:58:07.136Z,25.88
2018-02-21T16:00:36.532Z,25.10
2018-02-21T16:03:05.950Z,24.08
2018-02-21T16:05:35.410Z,21.27
2018-02-21T16:08:05.628Z,24.35
2018-02-21T16:13:28.335Z,24.48
2018-02-21T16:15:58.084Z,24.65
2018-02-21T16:18:27.504Z,24.15
2018-02-21T16:20:56.922Z,25.23
2018-02-21T16:23:26.352Z,22.83
2018-02-21T16:25:56.062Z,23.02
2018-02-21T16:28:25.481Z,24.25
2018-02-21T16:30:55.195Z,26.52
2018-02-21T16:33:25.303Z,25.62
2018-02-21T16:35:54.700Z,27.02
2018-02-21T16:38:24.136Z,23.60
2018-02-21T16:40:53.584Z,26.40
2018-02-21T16:43:22.985Z,27.37
2018-02-21T16:45:52.423Z,27.67
2018-02-21T16:48:21.849Z,26.98
2018-02-21T16:50:51.231Z,27.45
2018-02-21T16:53:20.666Z,27.33
2018-02-21T16:55:50.900Z,27.95
2018-02-21T16:58:20.309Z,29.48
2018-02-21T17:00:49.715Z,32.70
2018-02-21T17:03:19.144Z,32.88
2018-02-21T17:05:48.581Z,36.88
2018-02-21T17:08:18.032Z,26.12
2018-02-21T17:10:47.431Z,29.00
2018-02-21T17:13:16.919Z,26.67
2018-02-21T17:15:46.263Z,27.85
2018-02-21T17:18:15.689Z,26.55
2018-02-21T17:20:45.104Z,27.25
2018-02-21T17:23:14.534Z,29.37
2018-02-21T17:25:43.993Z,30.02
2018-02-21T17:28:13.390Z,28.05
2018-02-21T17:30:42.817Z,24.60
2018-02-21T17:33:12.249Z,24.55
2018-02-21T17:35:41.667Z,30.30
2018-02-21T17:38:11.124Z,27.83
2018-02-21T17:40:46.425Z,28.87
2018-02-21T17:43:15.831Z,29.73
2018-02-21T17:45:45.270Z,30.25
2018-02-21T17:48:14.701Z,25.80
2018-02-21T17:50:44.169Z,27.35
2018-02-21T17:53:13.624Z,26.10
2018-02-21T17:55:43.023Z,25.92
2018-02-21T17:58:12.545Z,26.75
2018-02-21T18:00:41.947Z,29.10
2018-02-21T18:03:11.381Z,26.30
2018-02-21T18:05:40.772Z,28.60
2018-02-21T18:08:10.196Z,25.85
2018-02-21T18:10:39.608Z,26.27
2018-02-21T18:13:09.114Z,24.95
2018-02-21T18:15:39.118Z,23.52
2018-02-21T18:18:08.545Z,27.00
2018-02-21T18:20:38.021Z,26.80
2018-02-21T18:23:07.534Z,25.37
2018-02-21T18:25:37.044Z,27.55
2018-02-21T18:28:06.565Z,26.10
2018-02-21T18:30:35.975Z,24.50
2018-02-21T18:33:05.405Z,25.60
2018-02-21T18:35:34.961Z,25.27
2018-02-21T18:38:04.376Z,28.80
2018-02-21T18:40:33.822Z,29.10
2018-02-21T18:43:03.276Z,28.90
2018-02-21T18:45:33.073Z,24.15
2018-02-21T18:48:02.488Z,28.60
2018-02-21T18:50:32.249Z,26.77
2018-02-21T18:53:01.657Z,24.73
2018-02-21T18:55:31.086Z,28.45
2018-02-21T18:58:00.503Z,25.40
2018-02-21T19:00:29.938Z,27.20
2018-02-21T19:02:59.390Z,25.98
2018-02-21T19:05:28.854Z,26.45
2018-02-21T19:07:58.253Z,27.05
2018-02-21T19:10:27.655Z,26.00
2018-02-21T19:12:57.119Z,21.80
2018-02-21T19:15:26.733Z,30.30
2018-02-21T19:17:56.175Z,25.98
2018-02-21T19:20:25.621Z,24.92
2018-02-21T19:22:55.047Z,28.23
2018-02-21T19:25:24.483Z,28.92
2018-02-21T19:27:53.881Z,25.35
2018-02-21T19:30:23.341Z,22.37
2018-02-21T19:32:52.856Z,20.50
2018-02-21T19:35:22.286Z,25.33
2018-02-21T19:37:51.719Z,26.20
2018-02-21T19:40:21.483Z,24.20
2018-02-21T19:42:51.807Z,28.20
2018-02-21T19:45:21.239Z,25.40
2018-02-21T19:47:50.697Z,22.67
2018-02-21T19:50:20.123Z,25.37
2018-02-21T19:52:49.553Z,25.25
2018-02-21T19:55:19.080Z,22.58
2018-02-21T19:57:48.539Z,27.10
2018-02-21T20:00:17.948Z,25.88
2018-02-21T20:02:47.393Z,23.73
2018-02-21T20:05:16.811Z,25.08
2018-02-21T20:07:46.341Z,27.67
2018-02-21T20:10:15.748Z,29.60
2018-02-21T20:12:45.178Z,29.55
2018-02-21T20:15:14.619Z,26.58
2018-02-21T20:17:44.087Z,27.50
2018-02-21T20:20:13.719Z,29.27
2018-02-21T20:22:43.162Z,39.92
2018-02-21T20:25:12.568Z,31.80
2018-02-21T20:27:42.008Z,29.52
2018-02-21T20:30:11.474Z,30.10
2018-02-21T20:32:40.920Z,30.55
2018-02-21T20:35:10.415Z,25.52
2018-02-21T20:37:39.908Z,26.85
2018-02-21T20:40:09.343Z,26.52
2018-02-21T20:42:38.770Z,26.98
2018-02-21T20:45:08.417Z,25.92
2018-02-21T20:47:37.841Z,25.67
2018-02-21T20:50:07.332Z,27.92
2018-02-21T20:52:36.840Z,24.67
2018-02-21T20:55:06.306Z,26.02
2018-02-21T20:57:35.687Z,29.08
2018-02-21T21:00:05.165Z,25.50
2018-02-21T21:02:34.572Z,27.37
2018-02-21T21:05:04.081Z,29.20
2018-02-21T21:07:33.537Z,26.95
2018-02-21T21:10:03.813Z,26.92
2018-02-21T21:12:33.251Z,27.25
2018-02-21T21:15:02.799Z,25.50
2018-02-21T21:17:32.236Z,28.80
2018-02-21T21:20:01.742Z,25.55
2018-02-21T21:22:31.192Z,26.27
2018-02-21T21:25:01.893Z,24.50
2018-02-21T21:27:31.366Z,25.15
2018-02-21T21:30:00.806Z,21.20
2018-02-21T21:32:30.194Z,25.70
2018-02-21T21:34:59.617Z,24.83
2018-02-21T21:37:29.031Z,24.42
2018-02-21T21:39:58.434Z,24.05
2018-02-21T21:42:27.867Z,24.00
2018-02-21T21:44:57.363Z,21.67
2018-02-21T21:47:26.759Z,26.73
2018-02-21T21:49:56.381Z,22.60
2018-02-21T21:52:25.769Z,26.62
2018-02-21T21:54:55.191Z,24.90
2018-02-21T21:57:24.579Z,24.90
2018-02-21T21:59:53.993Z,22.30
2018-02-21T22:02:23.415Z,24.95
2018-02-21T22:04:52.808Z,25.25
2018-02-21T22:07:22.258Z,23.12
2018-02-21T22:09:51.662Z,25.08
2018-02-21T22:12:21.084Z,27.55
2018-02-21T22:14:50.488Z,27.73
2018-02-21T22:17:20.341Z,29.73
2018-02-21T22:19:49.749Z,26.08
2018-02-21T22:22:19.188Z,24.98
2018-02-21T22:24:48.784Z,23.35
2018-02-21T22:27:18.288Z,23.85
2018-02-21T22:29:47.706Z,24.98
2018-02-21T22:32:17.102Z,24.33
2018-02-21T22:34:46.516Z,22.62
2018-02-21T22:37:15.955Z,21.23
2018-02-21T22:39:45.348Z,24.48
2018-02-21T22:42:14.780Z,20.02
2018-02-21T22:44:44.165Z,27.20
2018-02-21T22:47:13.600Z,23.27
2018-02-21T22:49:42.981Z,22.83
2018-02-21T22:52:12.492Z,25.00
2018-02-21T22:54:41.927Z,27.02
2018-02-21T22:57:11.336Z,24.27
2018-02-21T22:59:41.253Z,23.80
2018-02-21T23:02:10.708Z,22.25
2018-02-21T23:04:40.129Z,25.12
2018-02-21T23:07:09.575Z,23.92
2018-02-21T23:09:38.989Z,26.20
2018-02-21T23:12:08.472Z,25.27
2018-02-21T23:14:37.829Z,26.52
2018-02-21T23:17:07.265Z,25.67
2018-02-21T23:19:36.656Z,24.37
2018-02-21T23:22:06.111Z,23.60
2018-02-21T23:24:35.533Z,20.12
2018-02-21T23:27:04.922Z,23.30
2018-02-21T23:29:34.338Z,24.35
2018-02-21T23:32:03.744Z,24.40
2018-02-21T23:34:33.173Z,22.98
2018-02-21T23:37:02.597Z,21.98
2018-02-21T23:39:32.022Z,25.35
2018-02-21T23:42:01.416Z,20.30
2018-02-21T23:44:30.869Z,21.00
2018-02-21T23:47:00.264Z,26.92
2018-02-21T23:49:29.748Z,22.95
2018-02-21T23:51:59.156Z,27.00
2018-02-21T23:54:28.578Z,24.30
2018-02-21T23:56:58.015Z,20.52
2018-02-21T23:59:27.413Z,20.65
